Terminal Aerodrome Forecast
Issued by NWS Wilmington, NC

Home | Current Version | Previous Version | Text Only | Print | Product List | Glossary On
Versions: 1 2 3 4 5 6 7 8 9 10 11 12 13 14 15 16 17 18 19
023
FTUS42 KILM 171723
TAFILM
TAF
KILM 171723Z 1718/1818 23007KT P6SM FEW015 SCT080 SCT250
     FM172300 21006KT P6SM SCT080 SCT250
     FM180300 23008KT P6SM SCT080 SCT250 WS012/23034KT
     FM181300 25013G24KT P6SM SCT015 BKN080
      TEMPO 1813/1817 6SM -SHRA BKN020=

USA.gov is the U.S. government's official web portal to all federal, state and local government web resources and services.